This is the latest recevied weather packets stored in our database for station/object SP6PGH-13. If no packets are shown the sender has not sent any weather packets the latest 10 day(s).
| Time | Temp. | Humidity | Pressure | Rain* | Wind** | Luminosity | Snow |
|---|---|---|---|---|---|---|---|
| 1777278089 | 12.78° C | 30% | 1010.3 hPa | - | - | 554 W/m² | - |
| 1777277188 | 12.22° C | 30% | 1010.3 hPa | - | - | 509 W/m² | - |
| 1777276286 | 12.78° C | 29% | 1010.3 hPa | - | - | 469 W/m² | - |
| 1777275385 | 12.22° C | 34% | 1010.3 hPa | - | - | 432 W/m² | - |
| 1777274484 | 11.67° C | 34% | 1010.4 hPa | - | - | 398 W/m² | - |
| 1777273583 | 10.56° C | 37% | 1010.4 hPa | - | - | 343 W/m² | - |
| 1777272682 | 9.44° C | 39% | 1010.5 hPa | - | - | 301 W/m² | - |
| 1777271781 | 8.33° C | 44% | 1010.5 hPa | - | - | 245 W/m² | - |
| 1777270880 | 7.22° C | 50% | 1010.5 hPa | - | - | 54 W/m² | - |
| 1777269979 | 5.56° C | 52% | 1010.5 hPa | - | - | 46 W/m² | - |
| 1777269078 | 5° C | 55% | 1010.4 hPa | - | - | 43 W/m² | - |
| 1777268178 | 3.33° C | 60% | 1010.4 hPa | - | - | 40 W/m² | - |
| 1777267276 | 2.78° C | 64% | 1010.3 hPa | - | - | 37 W/m² | - |
| 1777266375 | 2.22° C | 69% | 1010.3 hPa | - | - | 34 W/m² | - |
| 1777265474 | 1.11° C | 73% | 1010.2 hPa | - | - | 30 W/m² | - |
| 1777264573 | 0° C | 77% | 1010.1 hPa | - | - | 25 W/m² | - |
| 1777263672 | 0° C | 75% | 1010 hPa | - | - | 21 W/m² | - |
| 1777262771 | 0° C | 77% | 1009.9 hPa | - | - | 15 W/m² | - |
| 1777261870 | -0.56° C | 77% | 1009.9 hPa | - | - | 9 W/m² | - |
| 1777260969 | -0.56° C | 77% | 1009.9 hPa | - | - | 3 W/m² | - |
| 1777260068 | 0° C | 76% | 1009.8 hPa | - | - | 1 W/m² | - |
| 1777259167 | 0° C | 77% | 1009.8 hPa | - | - | - | - |
| 1777258266 | -0.56° C | 80% | 1010 hPa | - | - | - | - |
| 1777257365 | -0.56° C | 80% | 1009.9 hPa | - | - | - | - |
| 1777256464 | 0.56° C | 77% | 1009.9 hPa | - | - | - | - |
* Rain since midnight (hover to see other rain measurements)
** Current wind speed in m/s (hover to see current wind gust speed)